createdAt,value
2019-03-13T07:33:33.590Z,55.68
2019-03-13T07:36:04.643Z,57.18
2019-03-13T07:38:39.117Z,58.49
2019-03-13T07:41:27.124Z,59.93
2019-03-13T07:43:58.278Z,60.89
2019-03-13T07:46:31.221Z,61.70
2019-03-13T08:31:20.795Z,58.32
2019-03-13T08:56:00.806Z,32.36
2019-03-13T08:58:40.441Z,33.98
2019-03-13T09:01:28.156Z,34.79
2019-03-13T09:04:04.737Z,35.42
2019-03-13T09:06:48.036Z,36.99
2019-03-13T09:09:20.016Z,35.28
2019-03-13T09:11:53.656Z,35.57
2019-03-13T09:14:30.406Z,40.66
2019-03-13T09:17:19.420Z,37.62
2019-03-13T09:19:54.395Z,39.22
2019-03-13T09:22:44.242Z,41.29
2019-03-13T09:25:27.300Z,40.78
2019-03-13T09:28:10.835Z,40.74
2019-03-13T09:30:50.842Z,43.65
2019-03-13T09:33:23.965Z,42.54
2019-03-13T09:36:11.296Z,42.89
2019-03-13T09:38:43.196Z,43.65
2019-03-13T09:41:33.426Z,44.62
2019-03-13T09:44:19.310Z,46.63
2019-03-13T09:46:53.672Z,45.29
2019-03-13T09:49:33.581Z,46.32
2019-03-13T09:52:16.940Z,46.84
2019-03-13T09:55:05.900Z,47.26
2019-03-13T09:57:40.029Z,48.00
2019-03-13T10:00:18.851Z,48.61
2019-03-13T10:03:01.665Z,47.71
2019-03-13T10:05:38.420Z,48.60
2019-03-13T10:08:12.752Z,48.21
2019-03-13T10:10:49.479Z,48.79
2019-03-13T10:13:26.451Z,48.90
2019-03-13T10:16:17.155Z,48.54
2019-03-13T10:18:53.685Z,49.64
2019-03-13T10:21:43.851Z,48.34
2019-03-13T10:24:20.562Z,48.55
2019-03-13T10:27:00.694Z,47.90
2019-03-13T10:29:34.386Z,47.59
2019-03-13T10:32:06.562Z,48.86
2019-03-13T10:34:38.596Z,48.49
2019-03-13T10:37:13.520Z,48.55
2019-03-13T10:40:05.790Z,48.09
2019-03-13T10:42:42.661Z,48.03
2019-03-13T10:45:18.220Z,47.73
2019-03-13T10:47:52.122Z,48.44
2019-03-13T10:50:31.996Z,49.24
2019-03-13T10:53:21.995Z,48.85
2019-03-13T10:56:09.390Z,47.50
2019-03-13T10:58:43.180Z,47.09
2019-03-13T11:01:33.165Z,46.98
2019-03-13T11:04:09.756Z,46.55
2019-03-13T11:06:54.279Z,46.15
2019-03-13T11:09:20.111Z,46.49
2019-03-13T11:11:55.084Z,46.74
2019-03-13T11:14:27.053Z,47.61
2019-03-13T11:17:12.591Z,46.14
2019-03-13T11:19:50.391Z,47.84
2019-03-13T11:22:40.596Z,46.56
2019-03-13T11:25:26.880Z,47.50
2019-03-13T11:28:11.470Z,47.99
2019-03-13T11:30:51.900Z,47.88
2019-03-13T11:33:25.813Z,46.58
2019-03-13T11:36:09.056Z,47.95
2019-03-13T11:38:59.238Z,48.74
2019-03-13T11:41:34.047Z,48.44
2019-03-13T11:44:15.146Z,47.62
2019-03-13T11:46:51.916Z,46.30
2019-03-13T11:49:24.521Z,46.29
2019-03-13T11:52:10.735Z,46.85
2019-03-13T11:54:47.576Z,45.81
2019-03-13T11:57:21.480Z,45.89
2019-03-13T12:00:12.174Z,45.75
2019-03-13T12:03:02.424Z,46.05
2019-03-13T12:05:52.855Z,45.65
2019-03-13T12:08:35.886Z,44.21
2019-03-13T12:11:09.710Z,44.71
2019-03-13T12:13:52.690Z,44.32
2019-03-13T12:16:26.416Z,43.30
2019-03-13T12:18:58.415Z,43.18
2019-03-13T12:21:39.655Z,44.12
2019-03-13T12:24:29.435Z,43.89
2019-03-13T12:27:19.415Z,43.39
2019-03-13T12:29:53.337Z,44.44
2019-03-13T12:32:28.219Z,42.22
2019-03-13T12:35:01.856Z,43.52
2019-03-13T12:37:47.538Z,43.44
2019-03-13T12:40:37.335Z,43.26
2019-03-13T12:43:21.455Z,43.21
2019-03-13T12:45:58.362Z,43.34
2019-03-13T12:48:48.420Z,44.21
2019-03-13T12:51:38.716Z,43.60
2019-03-13T12:54:27.795Z,44.40
2019-03-13T12:56:59.676Z,42.80
2019-03-13T12:59:39.495Z,43.20
2019-03-13T13:02:14.335Z,43.05
2019-03-13T13:05:00.915Z,43.70
2019-03-13T13:07:43.957Z,43.13
2019-03-13T13:10:20.156Z,44.03
2019-03-13T13:13:03.135Z,43.38
2019-03-13T13:15:36.895Z,44.19
2019-03-13T13:18:10.658Z,44.42
2019-03-13T13:20:42.816Z,43.34
2019-03-13T13:23:14.979Z,44.92
2019-03-13T13:25:47.075Z,43.84
2019-03-13T13:28:19.216Z,42.39
2019-03-13T13:30:51.497Z,43.76
2019-03-13T13:44:42.470Z,40.54
2019-03-13T13:47:14.952Z,41.08
2019-03-13T13:49:59.118Z,42.17
2019-03-13T13:52:21.265Z,43.28
2019-03-13T13:54:53.706Z,41.39
2019-03-13T13:57:26.060Z,41.96
2019-03-13T13:59:59.391Z,41.61
2019-03-13T14:02:31.885Z,41.64
2019-03-13T14:05:04.145Z,41.08
2019-03-13T14:07:36.386Z,40.29
2019-03-13T14:10:16.005Z,41.51
2019-03-13T14:12:48.286Z,42.38
2019-03-13T14:15:20.465Z,42.74
2019-03-13T14:17:52.726Z,42.80
2019-03-13T14:20:25.825Z,43.10
2019-03-13T14:22:58.086Z,41.85
2019-03-13T14:25:30.165Z,41.85
2019-03-13T14:28:02.705Z,41.88
2019-03-13T14:30:34.806Z,42.20
2019-03-13T14:33:06.985Z,41.40
2019-03-13T14:35:39.245Z,42.14
2019-03-13T14:38:11.308Z,42.02
2019-03-13T14:40:43.665Z,41.59
2019-03-13T14:43:16.285Z,42.43
2019-03-13T14:45:48.446Z,42.12
2019-03-13T14:48:21.885Z,40.51
2019-03-13T14:50:54.701Z,42.16
2019-03-13T14:53:27.049Z,42.65
2019-03-13T14:55:59.446Z,43.21
2019-03-13T14:58:31.705Z,43.26
2019-03-13T15:01:04.329Z,43.82
2019-03-13T15:03:36.485Z,43.31
2019-03-13T15:06:08.506Z,43.53
2019-03-13T15:08:40.686Z,42.96
2019-03-13T15:11:12.925Z,43.21
2019-03-13T15:13:45.125Z,42.47
2019-03-13T15:16:17.399Z,44.09
2019-03-13T15:18:49.745Z,42.98
2019-03-13T15:21:22.185Z,42.85
2019-03-13T15:23:54.861Z,42.54
2019-03-13T15:26:27.137Z,42.80
2019-03-13T15:28:59.668Z,43.39
2019-03-13T15:31:32.195Z,43.54
2019-03-13T15:34:04.716Z,43.00
2019-03-13T15:36:37.077Z,44.41
2019-03-13T15:39:09.371Z,43.47
2019-03-13T15:41:42.762Z,43.09
2019-03-13T15:44:15.015Z,44.02
2019-03-13T15:46:47.205Z,44.30
2019-03-13T15:49:19.461Z,44.56
2019-03-13T15:51:51.976Z,44.35
2019-03-13T15:54:24.356Z,45.15
2019-03-13T15:56:56.565Z,45.06
2019-03-13T15:59:28.795Z,45.09
2019-03-13T16:02:01.061Z,44.90
2019-03-13T16:04:33.295Z,45.11
2019-03-13T16:07:05.996Z,45.44
2019-03-13T16:09:38.496Z,46.05
2019-03-13T16:12:10.845Z,45.84
2019-03-13T16:14:43.491Z,45.99
2019-03-13T16:17:16.241Z,45.90
2019-03-13T16:19:48.485Z,46.71
2019-03-13T16:22:22.356Z,46.90
2019-03-13T16:24:54.596Z,47.34
2019-03-13T16:27:27.099Z,47.14
2019-03-13T16:30:00.662Z,47.30
2019-03-13T16:32:43.621Z,47.80
2019-03-13T16:35:09.521Z,48.01
2019-03-13T16:37:41.750Z,48.27
2019-03-13T16:40:20.827Z,48.45
2019-03-13T16:42:53.279Z,48.91
2019-03-13T16:45:25.773Z,49.34
2019-03-13T16:47:58.016Z,49.74
2019-03-13T16:50:36.262Z,50.44
2019-03-13T16:53:08.694Z,50.06
2019-03-13T16:55:41.570Z,50.32
2019-03-13T16:58:13.989Z,50.22
2019-03-13T17:00:46.550Z,50.31
2019-03-13T17:03:18.935Z,50.35
2019-03-13T17:05:51.396Z,50.12
2019-03-13T17:08:23.670Z,50.64
2019-03-13T17:10:56.216Z,50.45
2019-03-13T17:13:28.625Z,50.28
2019-03-13T17:16:01.440Z,50.51
2019-03-13T17:18:33.776Z,50.54
2019-03-13T17:21:06.360Z,50.82
2019-03-13T17:23:38.655Z,50.94
2019-03-13T17:26:12.245Z,50.90
2019-03-13T17:28:44.725Z,51.28
2019-03-13T17:31:17.189Z,51.15
2019-03-13T17:33:49.630Z,51.24
2019-03-13T17:36:21.997Z,51.29
2019-03-13T17:38:54.710Z,51.46
2019-03-13T17:41:27.125Z,51.45
2019-03-13T17:44:00.031Z,51.41
2019-03-13T17:46:32.666Z,51.47
2019-03-13T17:49:05.113Z,51.36
2019-03-13T17:51:37.470Z,51.59
2019-03-13T17:54:10.025Z,51.89
2019-03-13T17:56:42.525Z,52.12
2019-03-13T17:59:14.985Z,52.47
2019-03-13T18:01:48.456Z,52.55
2019-03-13T18:04:20.885Z,52.99
2019-03-13T18:06:53.290Z,52.70
2019-03-13T18:09:25.872Z,52.95
2019-03-13T18:11:58.185Z,53.06
2019-03-13T18:14:32.150Z,53.13
2019-03-13T18:17:04.910Z,53.51
2019-03-13T18:19:37.446Z,53.49
2019-03-13T18:22:09.711Z,53.71
2019-03-13T18:24:42.025Z,53.76
2019-03-13T18:27:15.931Z,53.99
2019-03-13T18:29:48.128Z,54.00
2019-03-13T18:32:20.631Z,53.86
2019-03-13T18:34:53.115Z,54.34
2019-03-13T18:37:25.495Z,54.47
2019-03-13T18:39:58.421Z,54.67
2019-03-13T18:42:31.695Z,54.69
2019-03-13T18:45:04.445Z,54.65
2019-03-13T18:47:36.905Z,54.60
2019-03-13T18:50:13.515Z,54.77
2019-03-13T18:52:46.001Z,54.65
2019-03-13T18:55:30.725Z,54.72
2019-03-13T18:58:02.870Z,54.78
2019-03-13T19:00:39.740Z,54.73
2019-03-13T19:03:12.510Z,54.97
2019-03-13T19:05:45.085Z,54.77
2019-03-13T19:08:17.736Z,54.87
2019-03-13T19:10:50.200Z,54.89
2019-03-13T19:13:22.450Z,54.69
2019-03-13T19:15:54.654Z,54.78
2019-03-13T19:18:26.990Z,54.88
2019-03-13T19:20:59.407Z,55.37
2019-03-13T19:23:32.060Z,55.35
2019-03-13T19:26:04.612Z,55.14
2019-03-13T19:28:36.937Z,55.13
2019-03-13T19:31:09.783Z,54.84
2019-03-13T19:33:42.415Z,55.13
2019-03-13T19:36:14.836Z,54.97
2019-03-13T19:38:47.051Z,55.02
2019-03-13T19:41:19.521Z,54.88
2019-03-13T19:43:52.343Z,55.36
2019-03-13T19:46:24.653Z,55.16
2019-03-13T19:48:57.338Z,55.07
2019-03-13T19:51:29.581Z,55.03
2019-03-13T19:54:02.270Z,54.94
2019-03-13T19:56:35.242Z,55.02
2019-03-13T19:59:07.655Z,54.93
2019-03-13T20:01:40.112Z,54.88
2019-03-13T20:04:13.590Z,55.04
2019-03-13T20:06:46.050Z,55.16
2019-03-13T20:09:18.635Z,55.00
2019-03-13T20:11:51.108Z,55.13
2019-03-13T20:14:23.489Z,54.89
2019-03-13T20:16:55.835Z,54.94
2019-03-13T20:19:28.592Z,54.73
2019-03-13T20:22:01.066Z,54.67
2019-03-13T20:24:34.310Z,54.69
2019-03-13T20:27:06.840Z,54.60
2019-03-13T20:29:39.322Z,54.46
2019-03-13T20:32:11.530Z,54.34
2019-03-13T20:34:43.845Z,54.46
2019-03-13T20:37:16.395Z,54.54
2019-03-13T20:39:48.728Z,54.16
2019-03-13T20:42:21.394Z,54.21
2019-03-13T20:44:54.065Z,54.18
2019-03-13T20:47:26.810Z,54.14
2019-03-13T20:49:58.980Z,54.17
2019-03-13T20:52:31.335Z,54.07
2019-03-13T20:55:03.721Z,54.29
2019-03-13T20:57:36.046Z,54.22
2019-03-13T21:00:16.130Z,54.38
2019-03-13T21:02:48.565Z,54.36
2019-03-13T21:05:21.110Z,54.67
2019-03-13T21:07:53.590Z,54.42
2019-03-13T21:10:26.002Z,54.44
2019-03-13T21:12:58.515Z,54.43
2019-03-13T21:15:31.057Z,54.42
2019-03-13T21:18:03.432Z,54.81
2019-03-13T21:20:35.600Z,54.71
2019-03-13T21:23:07.965Z,54.80
2019-03-13T21:25:40.305Z,54.86
2019-03-13T21:28:12.530Z,54.94
2019-03-13T21:30:45.051Z,54.82
2019-03-13T21:33:17.362Z,54.72
2019-03-13T21:35:49.865Z,54.71
2019-03-13T21:38:22.452Z,54.92
2019-03-13T21:40:56.220Z,54.85
2019-03-13T21:43:28.731Z,54.70
2019-03-13T21:46:01.046Z,54.81
2019-03-13T21:48:33.535Z,54.91
2019-03-13T21:51:05.969Z,54.74
2019-03-13T21:53:38.289Z,54.71
2019-03-13T21:56:10.643Z,54.73
2019-03-13T21:58:43.045Z,54.68
2019-03-13T22:01:20.009Z,54.75
2019-03-13T22:03:49.395Z,54.59
2019-03-13T22:06:28.591Z,54.44
2019-03-13T22:08:56.101Z,54.48
2019-03-13T22:11:28.770Z,54.33
2019-03-13T22:14:01.106Z,54.54
2019-03-13T22:16:33.448Z,54.63
2019-03-13T22:19:05.940Z,54.87
2019-03-13T22:21:38.436Z,54.76
2019-03-13T22:24:10.745Z,54.63
2019-03-13T22:29:32.990Z,54.48
2019-03-13T22:32:05.165Z,54.21
2019-03-13T22:34:37.561Z,54.65
2019-03-13T22:37:09.935Z,54.69
2019-03-13T22:39:42.316Z,54.44
2019-03-13T22:42:14.631Z,54.43
2019-03-13T22:44:47.071Z,54.35
2019-03-13T22:47:19.391Z,54.34
2019-03-13T22:49:51.540Z,54.55
2019-03-13T22:52:23.895Z,54.80
2019-03-13T22:54:55.975Z,54.99
2019-03-13T22:57:28.145Z,54.76
2019-03-13T23:00:00.790Z,54.73
2019-03-13T23:02:33.201Z,55.05
2019-03-13T23:05:06.445Z,54.97
2019-03-13T23:07:39.820Z,55.13
2019-03-13T23:10:35.660Z,55.20
2019-03-13T23:13:07.926Z,55.12
2019-03-13T23:15:40.396Z,55.12
2019-03-13T23:18:12.859Z,55.36
2019-03-13T23:20:45.121Z,55.46
2019-03-13T23:33:40.175Z,55.76
2019-03-13T23:36:12.765Z,56.08
2019-03-13T23:38:45.425Z,56.38
2019-03-13T23:41:17.695Z,56.71
2019-03-13T23:43:49.940Z,56.64
2019-03-13T23:46:22.206Z,57.10
2019-03-13T23:48:54.495Z,56.75
2019-03-13T23:51:26.820Z,56.88
2019-03-13T23:53:59.208Z,56.80
2019-03-13T23:56:31.306Z,56.82
2019-03-13T23:59:03.761Z,56.89
